Time;durP1;ratioP1;P1;durP2;ratioP2;P2;SDS_P1;SDS_P2;PMS_P1;PMS_P2;Temp;Humidity;BMP_temperature;BMP_pressure;BME280_temperature;BME280_humidity;BME280_pressure;Samples;Min_cycle;Max_cycle;Signal;HPM_P1;HPM_P2
2022/12/12 00:16:47;;;;;;;20.37;7.03;;;;;;;;;;6201720;23;20076;-58
2022/12/12 00:19:21;;;;;;;16.57;7.10;;;;;;;;;;6207787;23;20104;-59
2022/12/12 00:21:55;;;;;;;16.77;7.63;;;;;;;;;;6206900;23;20100;-60
2022/12/12 00:24:29;;;;;;;15.00;6.87;;;;;;;;;;6207121;23;20107;-58
2022/12/12 00:26:56;;;;;;;;;;;;;;;;;;6208984;23;20083;-56
2022/12/12 00:29:23;;;;;;;19.23;7.70;;;;;;;;;;6207770;23;20405;-63
2022/12/12 00:31:57;;;;;;;15.20;7.50;;;;;;;;;;6206447;23;20052;-67
2022/12/12 00:34:24;;;;;;;16.55;7.68;;;;;;;;;;6207161;23;20406;-66
2022/12/12 00:36:51;;;;;;;16.25;7.82;;;;;;;;;;6206031;23;20354;-66
2022/12/12 00:39:25;;;;;;;18.30;7.40;;;;;;;;;;6207274;23;20025;-66
2022/12/12 00:41:59;;;;;;;17.13;7.73;;;;;;;;;;6207255;23;20060;-64
2022/12/12 00:44:26;;;;;;;;;;;;;;;;;;6206721;23;20043;-66
2022/12/12 00:47:01;;;;;;;15.40;7.07;;;;;;;;;;6207794;23;19920;-52
2022/12/12 00:49:29;;;;;;;15.40;7.20;;;;;;;;;;6208341;23;20021;-63
2022/12/12 00:51:56;;;;;;;19.43;7.97;;;;;;;;;;6207213;23;20099;-64
2022/12/12 00:54:30;;;;;;;15.60;7.53;;;;;;;;;;6206587;23;20021;-64
2022/12/12 00:56:57;;;;;;;15.48;7.25;;;;;;;;;;6207628;23;20031;-64
2022/12/12 00:59:24;;;;;;;18.42;7.35;;;;;;;;;;6206972;23;20027;-64
2022/12/12 01:01:58;;;;;;;15.53;7.47;;;;;;;;;;6209508;23;20020;-63
2022/12/12 01:04:25;;;;;;;14.13;6.60;;;;;;;;;;6209749;23;20433;-64
2022/12/12 01:06:59;;;;;;;16.67;7.40;;;;;;;;;;6208937;23;20027;-49
2022/12/12 01:09:26;;;;;;;16.33;7.05;;;;;;;;;;6207727;23;20025;-45
2022/12/12 01:12:00;;;;;;;16.83;6.80;;;;;;;;;;6185021;23;20024;-46
2022/12/12 01:14:27;;;;;;;15.30;7.18;;;;;;;;;;6209573;23;20027;-46
2022/12/12 01:16:54;;;;;;;13.13;6.32;;;;;;;;;;6207514;23;20044;-46
2022/12/12 01:19:28;;;;;;;15.20;7.17;;;;;;;;;;6209181;23;20027;-46
2022/12/12 01:21:55;;;;;;;;;;;;;;;;;;6209086;23;20340;-47
2022/12/12 01:24:29;;;;;;;13.97;6.13;;;;;;;;;;6209046;23;19994;-52
2022/12/12 01:26:56;;;;;;;;;;;;;;;;;;6208455;23;20034;-64
2022/12/12 01:29:23;;;;;;;14.57;6.33;;;;;;;;;;6210315;23;20006;-56
2022/12/12 01:31:57;;;;;;;15.67;7.10;;;;;;;;;;6208132;23;20028;-55
2022/12/12 01:34:24;;;;;;;17.67;7.67;;;;;;;;;;6208395;23;20020;-58
2022/12/12 01:36:58;;;;;;;12.00;6.57;;;;;;;;;;6208358;23;20021;-59
2022/12/12 01:39:25;;;;;;;19.00;7.47;;;;;;;;;;6210188;23;20103;-58
2022/12/12 01:41:52;;;;;;;15.10;6.70;;;;;;;;;;6207505;23;20027;-59
2022/12/12 01:44:46;;;;;;;13.87;6.87;;;;;;;;;;6209015;23;20035;-64
2022/12/12 01:47:15;;;;;;;17.25;7.32;;;;;;;;;;6208893;23;20017;-66
2022/12/12 01:49:52;;;;;;;17.27;7.13;;;;;;;;;;6208275;23;20088;-67
2022/12/12 01:52:21;;;;;;;14.27;7.13;;;;;;;;;;6208524;23;20035;-65
2022/12/12 01:54:52;;;;;;;15.03;6.87;;;;;;;;;;6209256;23;20020;-66
2022/12/12 01:57:29;;;;;;;14.30;6.93;;;;;;;;;;6207841;23;20107;-67
2022/12/12 01:59:56;;;;;;;16.50;6.93;;;;;;;;;;6209444;23;20021;-66
2022/12/12 02:02:30;;;;;;;18.17;7.10;;;;;;;;;;6207915;23;20039;-64
2022/12/12 02:04:59;;;;;;;14.85;6.90;;;;;;;;;;6208962;23;20020;-56
2022/12/12 02:07:26;;;;;;;18.53;7.17;;;;;;;;;;6209327;23;20104;-58
2022/12/12 02:10:00;;;;;;;14.33;6.77;;;;;;;;;;6208684;23;20107;-56
2022/12/12 02:12:27;;;;;;;15.63;6.38;;;;;;;;;;6207796;23;20104;-53
2022/12/12 02:15:01;;;;;;;13.83;6.70;;;;;;;;;;6209365;23;20020;-58
2022/12/12 02:18:02;;;;;;;13.87;6.70;;;;;;;;;;6207658;23;20021;-59
2022/12/12 02:20:53;;;;;;;16.83;6.20;;;;;;;;;;6208393;23;20104;-59
2022/12/12 02:23:46;;;;;;;16.83;6.50;;;;;;;;;;6207974;23;20470;-64
2022/12/12 02:26:37;;;;;;;12.73;6.47;;;;;;;;;;6208510;23;20025;-66
2022/12/12 02:29:08;;;;;;;16.83;7.17;;;;;;;;;;6208206;23;20027;-66
2022/12/12 02:31:51;;;;;;;13.10;7.15;;;;;;;;;;6206544;23;20051;-66
2022/12/12 02:34:29;;;;;;;10.53;4.83;;;;;;;;;;6207563;23;20478;-65
2022/12/12 02:37:09;;;;;;;15.77;6.13;;;;;;;;;;6207700;23;20283;-67
2022/12/12 02:39:36;;;;;;;16.80;7.33;;;;;;;;;;6209518;23;20020;-66
2022/12/12 02:42:16;;;;;;;14.70;6.00;;;;;;;;;;6207789;23;20103;-67
2022/12/12 02:44:46;;;;;;;16.17;6.73;;;;;;;;;;6208740;23;20096;-64
2022/12/12 02:47:30;;;;;;;16.67;6.40;;;;;;;;;;6207494;23;20099;-63
2022/12/12 02:50:05;;;;;;;15.90;6.50;;;;;;;;;;6209903;23;20021;-64
2022/12/12 02:52:41;;;;;;;18.27;7.90;;;;;;;;;;6207808;23;20020;-63
2022/12/12 02:55:08;;;;;;;15.13;6.60;;;;;;;;;;6206927;23;20343;-64
2022/12/12 02:57:36;;;;;;;17.33;6.37;;;;;;;;;;6207884;23;20020;-64
2022/12/12 03:00:13;;;;;;;15.10;6.63;;;;;;;;;;6208353;23;20021;-46
2022/12/12 03:09:06;;;;;;;15.00;6.73;;;;;;;;;;6207144;23;20028;-53
2022/12/12 03:11:40;;;;;;;18.03;6.63;;;;;;;;;;6208443;23;20099;-54
2022/12/12 03:14:13;;;;;;;16.88;6.78;;;;;;;;;;6204340;23;20067;-58
2022/12/12 03:17:11;;;;;;;17.30;5.80;;;;;;;;;;6205992;23;20021;-58
2022/12/12 03:19:53;;;;;;;14.73;6.13;;;;;;;;;;6207911;23;20031;-66
2022/12/12 03:22:46;;;;;;;11.33;6.07;;;;;;;;;;6207066;23;20020;-53
2022/12/12 03:25:19;;;;;;;14.23;5.57;;;;;;;;;;6206520;23;20469;-50
2022/12/12 03:28:04;;;;;;;14.77;5.87;;;;;;;;;;6206770;23;20024;-50
2022/12/12 03:30:32;;;;;;;;;;;;;;;;;;6208931;23;20043;-53
2022/12/12 03:33:29;;;;;;;12.63;5.83;;;;;;;;;;6207839;23;19920;-51
2022/12/12 03:36:02;;;;;;;13.43;5.73;;;;;;;;;;6139659;23;20016;-53
2022/12/12 03:38:38;;;;;;;13.53;5.90;;;;;;;;;;6206301;23;20023;-58
2022/12/12 03:41:06;;;;;;;12.70;5.67;;;;;;;;;;6206510;23;20035;-47
2022/12/12 03:43:44;;;;;;;12.20;5.20;;;;;;;;;;6209086;23;20024;-64
2022/12/12 03:46:19;;;;;;;10.67;5.57;;;;;;;;;;6208560;23;20099;-64
2022/12/12 03:48:59;;;;;;;10.13;5.57;;;;;;;;;;6206813;23;20023;-64
2022/12/12 03:51:30;;;;;;;10.80;5.40;;;;;;;;;;6206050;23;20473;-64
2022/12/12 03:54:13;;;;;;;8.75;4.03;;;;;;;;;;6206070;23;20020;-64
2022/12/12 03:56:44;;;;;;;11.17;5.20;;;;;;;;;;6206723;23;20024;-56
2022/12/12 03:59:22;;;;;;;12.77;4.88;;;;;;;;;;6208050;23;20020;-51
2022/12/12 04:01:58;;;;;;;11.60;4.87;;;;;;;;;;6205830;23;20524;-67
2022/12/12 04:04:47;;;;;;;11.27;5.33;;;;;;;;;;6206673;23;20087;-66
2022/12/12 04:07:25;;;;;;;11.27;4.73;;;;;;;;;;6207940;23;20526;-66
2022/12/12 04:13:04;;;;;;;14.00;5.50;;;;;;;;;;6207236;23;20036;-66
2022/12/12 04:15:31;;;;;;;9.03;5.40;;;;;;;;;;6208261;23;20025;-66
2022/12/12 04:18:24;;;;;;;10.63;5.00;;;;;;;;;;6202771;23;20449;-52
2022/12/12 04:23:53;;;;;;;9.77;4.60;;;;;;;;;;6206486;23;20024;-66
2022/12/12 04:26:38;;;;;;;9.77;4.80;;;;;;;;;;6204607;23;20119;-64
2022/12/12 04:29:25;;;;;;;9.83;4.67;;;;;;;;;;6207487;23;20099;-64
2022/12/12 04:32:01;;;;;;;10.67;5.13;;;;;;;;;;6205612;23;20108;-64
2022/12/12 04:34:38;;;;;;;12.57;4.90;;;;;;;;;;6204917;23;20025;-57
2022/12/12 04:37:06;;;;;;;11.00;5.07;;;;;;;;;;6208204;23;20122;-53
2022/12/12 04:39:40;;;;;;;11.43;4.60;;;;;;;;;;6207719;23;20031;-66
2022/12/12 04:42:08;;;;;;;12.48;5.60;;;;;;;;;;6205843;23;20017;-66
2022/12/12 04:44:43;;;;;;;8.85;4.15;;;;;;;;;;6207545;23;20025;-66
2022/12/12 04:47:11;;;;;;;9.88;5.05;;;;;;;;;;6207320;23;20064;-66
2022/12/12 04:49:46;;;;;;;9.60;4.80;;;;;;;;;;6207411;23;20465;-67
2022/12/12 04:52:15;;;;;;;9.87;4.77;;;;;;;;;;6206508;23;20389;-66
2022/12/12 04:54:47;;;;;;;10.17;4.67;;;;;;;;;;6207952;23;20028;-47
2022/12/12 04:57:24;;;;;;;11.25;5.10;;;;;;;;;;6207791;23;20127;-52
2022/12/12 04:59:58;;;;;;;9.93;4.85;;;;;;;;;;6180912;23;20021;-53
2022/12/12 05:02:39;;;;;;;10.63;5.35;;;;;;;;;;6205216;23;20024;-50
2022/12/12 05:05:24;;;;;;;8.98;3.97;;;;;;;;;;6208110;23;20025;-55
2022/12/12 05:07:56;;;;;;;10.53;5.47;;;;;;;;;;6208839;23;20023;-54
2022/12/12 05:10:30;;;;;;;12.98;5.88;;;;;;;;;;6207458;23;20040;-51
2022/12/12 05:12:57;;;;;;;;;;;;;;;;;;6208335;23;20481;-64
2022/12/12 05:15:31;;;;;;;10.45;5.30;;;;;;;;;;6207566;23;19926;-64
2022/12/12 05:18:15;;;;;;;15.23;5.67;;;;;;;;;;5853678;23;8186355;-55
2022/12/12 05:20:49;;;;;;;10.55;5.47;;;;;;;;;;6208848;23;20023;-53
2022/12/12 05:23:17;;;;;;;13.23;6.03;;;;;;;;;;6180648;23;20108;-50
2022/12/12 05:25:44;;;;;;;10.43;5.50;;;;;;;;;;6206609;23;20071;-51
2022/12/12 05:28:18;;;;;;;10.85;5.60;;;;;;;;;;6209290;23;20454;-53
2022/12/12 05:30:45;;;;;;;11.10;5.90;;;;;;;;;;6207413;23;20365;-53
2022/12/12 05:33:19;;;;;;;12.00;5.80;;;;;;;;;;6206269;23;20027;-63
2022/12/12 05:35:46;;;;;;;17.23;6.00;;;;;;;;;;6207143;23;20020;-64
2022/12/12 05:38:13;;;;;;;11.35;5.28;;;;;;;;;;6206394;23;20025;-64
2022/12/12 05:40:47;;;;;;;10.37;5.50;;;;;;;;;;6205557;23;20024;-64
2022/12/12 05:43:14;;;;;;;11.70;6.38;;;;;;;;;;6206605;23;20339;-63
2022/12/12 05:45:48;;;;;;;14.27;6.65;;;;;;;;;;6205081;23;20479;-64
2022/12/12 05:48:15;;;;;;;;;;;;;;;;;;6204425;23;20363;-65
2022/12/12 05:50:48;;;;;;;12.40;6.20;;;;;;;;;;6209441;23;19947;-47
2022/12/12 05:53:22;;;;;;;12.10;6.38;;;;;;;;;;6208377;23;20024;-55
2022/12/12 05:55:50;;;;;;;12.25;5.72;;;;;;;;;;6209744;23;20437;-66
2022/12/12 05:58:24;;;;;;;13.63;6.18;;;;;;;;;;6209447;23;20099;-66
2022/12/12 06:00:51;;;;;;;;;;;;;;;;;;6209841;23;20020;-66
2022/12/12 06:03:18;;;;;;;12.43;5.97;;;;;;;;;;6208055;23;19991;-64
2022/12/12 06:05:52;;;;;;;12.05;6.13;;;;;;;;;;6209852;23;20026;-66
2022/12/12 06:08:19;;;;;;;13.82;7.05;;;;;;;;;;6210019;23;20028;-65
2022/12/12 06:10:53;;;;;;;12.05;5.97;;;;;;;;;;6207942;23;20033;-63
2022/12/12 06:13:20;;;;;;;11.82;6.30;;;;;;;;;;6209036;23;20017;-59
2022/12/12 06:15:47;;;;;;;;;;;;;;;;;;6210706;23;20031;-66
2022/12/12 06:18:28;;;;;;;12.93;6.07;;;;;;;;;;6208065;23;19916;-65
2022/12/12 06:21:01;;;;;;;15.73;6.03;;;;;;;;;;6209957;23;20409;-66
2022/12/12 06:23:36;;;;;;;12.63;6.53;;;;;;;;;;6208851;23;20383;-66
2022/12/12 06:26:04;;;;;;;12.13;6.30;;;;;;;;;;6207780;23;20537;-66
2022/12/12 06:28:31;;;;;;;13.85;6.60;;;;;;;;;;6208786;23;20017;-66
2022/12/12 06:31:05;;;;;;;12.57;6.65;;;;;;;;;;6208218;23;20384;-46
2022/12/12 06:33:38;;;;;;;14.15;6.70;;;;;;;;;;6208139;23;20362;-64
2022/12/12 06:36:22;;;;;;;13.70;7.18;;;;;;;;;;6209044;23;20016;-65
2022/12/12 06:38:50;;;;;;;9.23;5.32;;;;;;;;;;6208137;23;20070;-65
2022/12/12 06:41:25;;;;;;;12.93;6.25;;;;;;;;;;6184805;23;20472;-65
2022/12/12 06:43:52;;;;;;;13.13;7.35;;;;;;;;;;6208507;23;20025;-65
2022/12/12 06:46:24;;;;;;;15.45;6.80;;;;;;;;;;6207947;23;20104;-64
2022/12/12 06:48:58;;;;;;;13.43;6.85;;;;;;;;;;6209489;23;20561;-64
2022/12/12 06:51:27;;;;;;;12.50;6.53;;;;;;;;;;6209431;23;20408;-65
2022/12/12 06:54:01;;;;;;;13.63;7.25;;;;;;;;;;6207273;23;20099;-66
2022/12/12 06:56:28;;;;;;;14.43;8.18;;;;;;;;;;6208976;23;20557;-66
2022/12/12 06:59:02;;;;;;;14.25;6.85;;;;;;;;;;6208182;23;20100;-65
2022/12/12 07:01:29;;;;;;;14.38;6.55;;;;;;;;;;6206842;23;20106;-66
2022/12/12 07:03:57;;;;;;;13.38;6.35;;;;;;;;;;6208036;23;20025;-65
2022/12/12 07:06:31;;;;;;;12.93;7.00;;;;;;;;;;6208102;23;20020;-66
2022/12/12 07:08:59;;;;;;;13.77;7.05;;;;;;;;;;6206960;23;20466;-53
2022/12/12 07:11:26;;;;;;;11.07;6.40;;;;;;;;;;6209534;23;20046;-53
2022/12/12 07:14:02;;;;;;;13.68;6.10;;;;;;;;;;6208031;23;20461;-54
2022/12/12 07:16:29;;;;;;;14.30;6.70;;;;;;;;;;6208634;23;20104;-55
2022/12/12 07:19:10;;;;;;;13.32;6.80;;;;;;;;;;6207338;23;20032;-55
2022/12/12 07:21:44;;;;;;;12.10;7.07;;;;;;;;;;6208783;23;20028;-53
2022/12/12 07:24:18;;;;;;;12.68;6.32;;;;;;;;;;6207264;23;20346;-51
2022/12/12 07:26:45;;;;;;;12.15;6.22;;;;;;;;;;6208382;23;20815;-47
2022/12/12 07:29:12;;;;;;;15.45;7.28;;;;;;;;;;6209037;23;20107;-66
2022/12/12 07:31:47;;;;;;;15.48;7.13;;;;;;;;;;6206889;23;20020;-55
2022/12/12 07:34:14;;;;;;;12.10;6.82;;;;;;;;;;6207869;23;20020;-55
2022/12/12 07:36:41;;;;;;;11.40;6.07;;;;;;;;;;6208493;23;20024;-55
2022/12/12 07:39:15;;;;;;;11.68;6.63;;;;;;;;;;6209099;23;20128;-57
2022/12/12 07:41:47;;;;;;;12.90;6.45;;;;;;;;;;6209837;23;20086;-53
2022/12/12 07:44:21;;;;;;;15.45;6.95;;;;;;;;;;6208561;23;20387;-54
2022/12/12 07:46:48;;;;;;;;;;;;;;;;;;6209144;23;20052;-51
2022/12/12 07:49:16;;;;;;;13.38;6.13;;;;;;;;;;6209186;23;19915;-64
2022/12/12 07:51:49;;;;;;;15.63;7.25;;;;;;;;;;6209022;23;20024;-65
2022/12/12 07:54:16;;;;;;;16.52;7.47;;;;;;;;;;6207259;23;20028;-65
2022/12/12 07:56:50;;;;;;;13.43;6.97;;;;;;;;;;6208558;23;20016;-65
2022/12/12 07:59:17;;;;;;;13.38;7.05;;;;;;;;;;6209618;23;20411;-65
2022/12/12 08:01:44;;;;;;;16.13;6.88;;;;;;;;;;6206875;23;20027;-65
2022/12/12 08:04:18;;;;;;;15.65;7.10;;;;;;;;;;6207537;23;20063;-47
2022/12/12 08:06:45;;;;;;;11.32;6.32;;;;;;;;;;6207785;23;20402;-52
2022/12/12 08:09:28;;;;;;;16.25;7.20;;;;;;;;;;6207813;23;20075;-64
2022/12/12 08:11:57;;;;;;;17.60;7.43;;;;;;;;;;6207341;23;20063;-64
2022/12/12 08:14:31;;;;;;;13.23;6.53;;;;;;;;;;6206975;23;20025;-64
2022/12/12 08:16:58;;;;;;;13.88;6.75;;;;;;;;;;6207095;23;20048;-64
2022/12/12 08:19:26;;;;;;;11.45;6.30;;;;;;;;;;6206405;23;20091;-64
2022/12/12 08:21:59;;;;;;;13.90;6.65;;;;;;;;;;6206287;23;20496;-63
2022/12/12 08:24:27;;;;;;;14.30;5.75;;;;;;;;;;6208401;23;20683;-64
2022/12/12 08:27:01;;;;;;;15.43;5.80;;;;;;;;;;6208267;23;20021;-50
2022/12/12 08:29:28;;;;;;;14.23;6.53;;;;;;;;;;6207010;23;20417;-46
2022/12/12 08:31:55;;;;;;;13.00;5.78;;;;;;;;;;6207598;23;20021;-46
2022/12/12 08:34:32;;;;;;;11.82;5.68;;;;;;;;;;6208243;23;20029;-45
2022/12/12 08:36:59;;;;;;;15.52;5.82;;;;;;;;;;6207314;23;20024;-45
2022/12/12 08:39:26;;;;;;;11.00;5.03;;;;;;;;;;6208331;23;20496;-46
2022/12/12 08:42:00;;;;;;;10.57;5.72;;;;;;;;;;6207905;23;20366;-65
2022/12/12 08:44:34;;;;;;;9.43;4.85;;;;;;;;;;6207059;23;20051;-65
2022/12/12 08:47:01;;;;;;;;;;;;;;;;;;6207085;23;20103;-55
2022/12/12 08:49:28;;;;;;;9.13;4.72;;;;;;;;;;6207588;23;19962;-54
2022/12/12 08:52:04;;;;;;;10.40;5.10;;;;;;;;;;6207023;23;20095;-54
2022/12/12 08:54:32;;;;;;;11.73;5.30;;;;;;;;;;6181331;23;20020;-58
2022/12/12 08:57:06;;;;;;;9.82;5.47;;;;;;;;;;6206877;23;20020;-58
2022/12/12 08:59:33;;;;;;;12.60;5.82;;;;;;;;;;6208232;23;20408;-54
2022/12/12 09:02:00;;;;;;;10.95;5.68;;;;;;;;;;6206668;23;20354;-57
2022/12/12 09:04:34;;;;;;;10.25;5.78;;;;;;;;;;6208010;23;20052;-52
2022/12/12 09:07:02;;;;;;;14.68;6.13;;;;;;;;;;6207155;23;20060;-52
2022/12/12 09:09:34;;;;;;;13.40;5.75;;;;;;;;;;6207897;23;20025;-54
2022/12/12 09:12:08;;;;;;;13.30;5.88;;;;;;;;;;6206922;23;20683;-52
2022/12/12 09:14:35;;;;;;;10.32;5.28;;;;;;;;;;6208915;23;20331;-51
2022/12/12 09:17:09;;;;;;;11.50;5.63;;;;;;;;;;6207998;23;20023;-53
2022/12/12 09:19:44;;;;;;;12.40;6.05;;;;;;;;;;6207296;23;20021;-56
2022/12/12 09:22:18;;;;;;;12.82;5.85;;;;;;;;;;6209028;23;20032;-50
2022/12/12 09:24:45;;;;;;;11.13;6.00;;;;;;;;;;6210346;23;20021;-58
2022/12/12 09:27:12;;;;;;;11.45;5.38;;;;;;;;;;6208917;23;20020;-54
2022/12/12 09:29:46;;;;;;;10.77;5.35;;;;;;;;;;6183806;23;20087;-53
2022/12/12 09:32:13;;;;;;;10.55;5.35;;;;;;;;;;6210397;23;20046;-54
2022/12/12 09:34:51;;;;;;;10.63;5.65;;;;;;;;;;6208331;23;20067;-52
2022/12/12 09:37:18;;;;;;;9.05;5.25;;;;;;;;;;6207593;23;20021;-59
2022/12/12 09:39:45;;;;;;;9.27;5.45;;;;;;;;;;6209554;23;20502;-66
2022/12/12 09:42:21;;;;;;;9.40;5.32;;;;;;;;;;6209983;23;20362;-46
2022/12/12 09:44:49;;;;;;;11.90;5.50;;;;;;;;;;6207634;23;20039;-46
2022/12/12 09:47:19;;;;;;;13.48;6.10;;;;;;;;;;6208488;23;20035;-48
2022/12/12 09:49:53;;;;;;;10.60;4.65;;;;;;;;;;6209527;23;20017;-46
2022/12/12 09:52:31;;;;;;;11.65;4.15;;;;;;;;;;6208454;23;20486;-47
2022/12/12 09:55:22;;;;;;;11.95;5.43;;;;;;;;;;6208818;23;20819;-46
2022/12/12 09:57:54;;;;;;;10.23;4.93;;;;;;;;;;6209431;23;20020;-45
2022/12/12 10:00:30;;;;;;;8.63;4.68;;;;;;;;;;6209659;23;20031;-65
2022/12/12 10:03:08;;;;;;;10.90;5.07;;;;;;;;;;6209834;23;20059;-65
2022/12/12 10:05:44;;;;;;;12.52;5.65;;;;;;;;;;6208069;23;20025;-64
2022/12/12 10:08:21;;;;;;;8.60;4.97;;;;;;;;;;6208891;23;20017;-65
2022/12/12 10:10:57;;;;;;;11.40;5.65;;;;;;;;;;6208908;23;20386;-64
2022/12/12 10:13:32;;;;;;;9.32;4.55;;;;;;;;;;6206836;23;20032;-63
2022/12/12 10:16:07;;;;;;;8.20;4.82;;;;;;;;;;6209420;23;20095;-64
2022/12/12 10:18:56;;;;;;;10.88;4.65;;;;;;;;;;6207227;23;20029;-65
2022/12/12 10:21:31;;;;;;;8.68;4.63;;;;;;;;;;6208589;23;20100;-65
2022/12/12 10:24:14;;;;;;;9.18;4.90;;;;;;;;;;6209084;23;20458;-64
2022/12/12 10:26:41;;;;;;;8.95;4.50;;;;;;;;;;6208736;23;20470;-64
2022/12/12 10:29:18;;;;;;;7.93;3.90;;;;;;;;;;6207808;23;20504;-64
2022/12/12 10:32:04;;;;;;;7.75;4.22;;;;;;;;;;6208751;23;20488;-65
2022/12/12 10:35:02;;;;;;;6.72;4.55;;;;;;;;;;6183684;23;20021;-64
2022/12/12 10:37:52;;;;;;;6.47;3.92;;;;;;;;;;6189509;23;20029;-58
2022/12/12 10:40:46;;;;;;;10.82;4.80;;;;;;;;;;6147466;23;20099;-57
2022/12/12 10:43:17;;;;;;;6.75;4.20;;;;;;;;;;6207680;23;20500;-54
2022/12/12 10:46:03;;;;;;;8.00;4.30;;;;;;;;;;6208759;23;20025;-51
2022/12/12 10:48:31;;;;;;;7.20;4.22;;;;;;;;;;6208665;23;20029;-55
2022/12/12 10:51:06;;;;;;;8.88;4.18;;;;;;;;;;6208703;23;20031;-52
2022/12/12 10:53:33;;;;;;;6.88;3.80;;;;;;;;;;6208415;23;20020;-53
2022/12/12 10:56:00;;;;;;;;;;;;;;;;;;6209194;23;20024;-53
2022/12/12 10:58:42;;;;;;;6.20;3.58;;;;;;;;;;6208219;23;19922;-55
2022/12/12 11:01:11;;;;;;;6.72;4.10;;;;;;;;;;6208716;23;20031;-57
2022/12/12 11:04:05;;;;;;;7.90;4.22;;;;;;;;;;6208399;23;20028;-53
2022/12/12 11:06:32;;;;;;;;;;;;;;;;;;6207687;23;20157;-57
2022/12/12 11:09:25;;;;;;;7.40;4.28;;;;;;;;;;6208730;23;19920;-53
2022/12/12 11:12:02;;;;;;;8.80;4.00;;;;;;;;;;6208897;23;20534;-56
2022/12/12 11:14:40;;;;;;;9.15;4.25;;;;;;;;;;6182091;23;20031;-57
2022/12/12 11:17:19;;;;;;;8.50;4.88;;;;;;;;;;6209102;23;20020;-50
2022/12/12 11:20:00;;;;;;;9.05;5.00;;;;;;;;;;6206810;23;20492;-66
2022/12/12 11:22:30;;;;;;;8.20;3.88;;;;;;;;;;6208573;23;20024;-64
2022/12/12 11:25:04;;;;;;;11.25;5.03;;;;;;;;;;6209269;23;20020;-66
2022/12/12 11:27:37;;;;;;;12.45;5.60;;;;;;;;;;6207245;23;20024;-66
2022/12/12 11:30:30;;;;;;;12.30;5.05;;;;;;;;;;6185129;23;20127;-66
2022/12/12 11:32:57;;;;;;;15.13;5.95;;;;;;;;;;6209339;23;20016;-66
2022/12/12 11:35:35;;;;;;;15.05;6.65;;;;;;;;;;6208623;23;20020;-66
2022/12/12 11:38:17;;;;;;;11.07;4.60;;;;;;;;;;6208453;23;20024;-66
2022/12/12 11:41:01;;;;;;;15.05;5.78;;;;;;;;;;6209305;23;20095;-66
2022/12/12 11:43:30;;;;;;;12.98;5.05;;;;;;;;;;6208539;23;20107;-66
2022/12/12 11:46:07;;;;;;;11.55;5.70;;;;;;;;;;6209004;23;20030;-66
2022/12/12 11:49:00;;;;;;;13.73;5.30;;;;;;;;;;6208293;23;20017;-66
2022/12/12 11:51:36;;;;;;;12.23;5.40;;;;;;;;;;6208798;23;20104;-66
2022/12/12 11:54:10;;;;;;;10.60;4.93;;;;;;;;;;6210007;23;20021;-64
2022/12/12 11:56:56;;;;;;;11.95;5.72;;;;;;;;;;6208013;23;20692;-51
2022/12/12 11:59:42;;;;;;;11.98;6.22;;;;;;;;;;6208921;23;20052;-53
2022/12/12 12:02:43;;;;;;;10.32;5.55;;;;;;;;;;6208503;23;20027;-51
2022/12/12 12:05:29;;;;;;;12.38;5.68;;;;;;;;;;6208565;23;20075;-52
2022/12/12 12:07:56;;;;;;;8.15;4.97;;;;;;;;;;6206632;23;20492;-54
2022/12/12 12:10:42;;;;;;;8.85;4.20;;;;;;;;;;6208624;23;20039;-53
2022/12/12 12:13:18;;;;;;;10.52;5.47;;;;;;;;;;6208178;23;20467;-56
2022/12/12 12:16:01;;;;;;;9.68;4.45;;;;;;;;;;6207524;23;20038;-65
2022/12/12 12:18:48;;;;;;;9.85;4.80;;;;;;;;;;6206851;23;20099;-65
2022/12/12 12:21:26;;;;;;;7.50;4.35;;;;;;;;;;6208362;23;20016;-65
2022/12/12 12:24:13;;;;;;;7.80;4.88;;;;;;;;;;6207843;23;20031;-64
2022/12/12 12:26:51;;;;;;;6.60;4.13;;;;;;;;;;6189722;23;20031;-65
2022/12/12 12:29:25;;;;;;;7.78;4.15;;;;;;;;;;6207937;23;20020;-65
2022/12/12 12:32:17;;;;;;;7.55;4.15;;;;;;;;;;6207739;23;20104;-58
2022/12/12 12:34:55;;;;;;;9.13;4.35;;;;;;;;;;6180780;23;20023;-46
2022/12/12 12:37:41;;;;;;;7.13;4.43;;;;;;;;;;6207342;23;20017;-45
2022/12/12 12:40:17;;;;;;;9.23;4.47;;;;;;;;;;6209145;23;20123;-48
2022/12/12 12:43:16;;;;;;;6.70;4.40;;;;;;;;;;6208339;23;20028;-45
2022/12/12 12:45:52;;;;;;;9.27;5.18;;;;;;;;;;6154011;23;20024;-45
2022/12/12 12:48:37;;;;;;;8.02;4.38;;;;;;;;;;6208416;23;20024;-47
2022/12/12 12:51:09;;;;;;;12.27;5.13;;;;;;;;;;6209337;23;20183;-55
2022/12/12 12:53:46;;;;;;;11.27;4.22;;;;;;;;;;6207422;23;20096;-54
2022/12/12 12:56:27;;;;;;;10.95;4.75;;;;;;;;;;6209522;23;20027;-49
2022/12/12 12:59:13;;;;;;;7.85;4.78;;;;;;;;;;6211260;23;20033;-53
2022/12/12 13:01:43;;;;;;;9.13;4.68;;;;;;;;;;6210354;23;20099;-51
2022/12/12 13:04:28;;;;;;;5.60;4.03;;;;;;;;;;6209859;23;20016;-49
2022/12/12 13:07:02;;;;;;;8.90;4.78;;;;;;;;;;6209254;23;20120;-48
2022/12/12 13:09:55;;;;;;;7.95;4.55;;;;;;;;;;6209461;23;20042;-56
2022/12/12 13:12:28;;;;;;;7.13;4.55;;;;;;;;;;6209694;23;20025;-50
2022/12/12 13:15:05;;;;;;;7.72;3.97;;;;;;;;;;6209852;23;20027;-52
2022/12/12 13:17:50;;;;;;;24.77;5.13;;;;;;;;;;6210303;23;20027;-55
2022/12/12 13:20:31;;;;;;;7.18;3.97;;;;;;;;;;6179983;23;20108;-52
2022/12/12 13:23:11;;;;;;;5.85;3.78;;;;;;;;;;6180454;23;20230;-51
2022/12/12 13:25:41;;;;;;;7.43;4.20;;;;;;;;;;6181000;23;20017;-54
2022/12/12 13:28:17;;;;;;;8.35;4.25;;;;;;;;;;6179490;23;20021;-64
2022/12/12 13:30:51;;;;;;;6.72;4.68;;;;;;;;;;6181055;23;20044;-65
2022/12/12 13:33:45;;;;;;;8.35;3.97;;;;;;;;;;6179759;23;20080;-51
2022/12/12 13:36:18;;;;;;;7.63;4.57;;;;;;;;;;6181369;23;20096;-54
2022/12/12 13:38:57;;;;;;;7.55;3.63;;;;;;;;;;6179520;23;20099;-54
2022/12/12 13:41:25;;;;;;;8.75;4.63;;;;;;;;;;6180695;23;20074;-54
2022/12/12 13:43:56;;;;;;;9.27;4.57;;;;;;;;;;6179892;23;20031;-54
2022/12/12 13:46:34;;;;;;;7.85;4.70;;;;;;;;;;6180630;23;20104;-55
2022/12/12 13:49:05;;;;;;;7.57;5.00;;;;;;;;;;6178774;23;20363;-50
2022/12/12 13:51:40;;;;;;;9.57;5.13;;;;;;;;;;6180258;23;20028;-65
2022/12/12 13:54:08;;;;;;;8.25;5.18;;;;;;;;;;6180604;23;20064;-66
2022/12/12 13:56:42;;;;;;;12.27;5.40;;;;;;;;;;6179476;23;20052;-65
2022/12/12 13:59:22;;;;;;;11.35;5.65;;;;;;;;;;6181144;23;20036;-66
2022/12/12 14:02:18;;;;;;;11.70;5.18;;;;;;;;;;6180624;23;20104;-66
2022/12/12 14:04:48;;;;;;;9.40;5.07;;;;;;;;;;6153432;23;20156;-66
2022/12/12 14:07:24;;;;;;;9.10;5.25;;;;;;;;;;6178169;23;20024;-66
2022/12/12 14:09:53;;;;;;;9.68;5.28;;;;;;;;;;6178741;23;20063;-54
2022/12/12 14:12:29;;;;;;;10.45;5.32;;;;;;;;;;6180457;23;20099;-53
2022/12/12 14:15:00;;;;;;;11.27;5.22;;;;;;;;;;6179772;23;20056;-55
2022/12/12 14:17:35;;;;;;;9.23;4.90;;;;;;;;;;6178764;23;20027;-51
2022/12/12 14:20:25;;;;;;;9.88;5.50;;;;;;;;;;6207623;23;20032;-52
2022/12/12 14:22:59;;;;;;;12.45;5.93;;;;;;;;;;6209257;23;20056;-56
2022/12/12 14:25:26;;;;;;;;;;;;;;;;;;6209720;23;20162;-52
2022/12/12 14:27:53;;;;;;;10.90;5.40;;;;;;;;;;6208757;23;19922;-65
2022/12/12 14:30:33;;;;;;;11.00;5.40;;;;;;;;;;6209755;23;20016;-50
2022/12/12 14:33:27;;;;;;;10.05;5.13;;;;;;;;;;6208975;23;20048;-54
2022/12/12 14:35:58;;;;;;;9.93;5.20;;;;;;;;;;6209872;23;20020;-52
2022/12/12 14:38:43;;;;;;;10.18;5.25;;;;;;;;;;6210171;23;20024;-56
2022/12/12 14:41:17;;;;;;;11.73;4.47;;;;;;;;;;6208909;23;20628;-51
2022/12/12 14:43:53;;;;;;;8.68;5.00;;;;;;;;;;6209623;23;20028;-52
2022/12/12 14:46:43;;;;;;;9.05;4.75;;;;;;;;;;6209248;23;20028;-65
2022/12/12 14:49:18;;;;;;;8.48;4.50;;;;;;;;;;6208178;23;20056;-65
2022/12/12 14:51:48;;;;;;;7.80;4.57;;;;;;;;;;6209654;23;20025;-64
2022/12/12 14:54:23;;;;;;;8.10;4.88;;;;;;;;;;6208742;23;20546;-64
2022/12/12 14:56:51;;;;;;;8.30;4.45;;;;;;;;;;6207458;23;20462;-64
2022/12/12 14:59:26;;;;;;;6.90;4.90;;;;;;;;;;6209584;23;20025;-64
2022/12/12 15:01:59;;;;;;;8.13;4.28;;;;;;;;;;6208321;23;20338;-65
2022/12/12 15:04:32;;;;;;;;;;;;;;;;;;6208189;23;20542;-66
2022/12/12 15:07:00;;;;;;;7.38;4.53;;;;;;;;;;6208897;23;20330;-54
2022/12/12 15:09:53;;;;;;;11.25;4.93;;;;;;;;;;6208253;23;20104;-55
2022/12/12 15:12:22;;;;;;;9.27;4.27;;;;;;;;;;6209110;23;20031;-56
2022/12/12 15:14:56;;;;;;;7.28;4.35;;;;;;;;;;6204811;23;20056;-56
2022/12/12 15:17:28;;;;;;;7.90;4.50;;;;;;;;;;6207102;23;20100;-54
2022/12/12 15:19:55;;;;;;;8.70;4.50;;;;;;;;;;6204400;23;20039;-54
2022/12/12 15:22:30;;;;;;;5.20;3.60;;;;;;;;;;6209108;23;20103;-65
2022/12/12 15:25:01;;;;;;;7.80;4.47;;;;;;;;;;6207339;23;20478;-66
2022/12/12 15:27:36;;;;;;;6.50;3.88;;;;;;;;;;6208873;23;20358;-51
2022/12/12 15:30:24;;;;;;;7.05;3.80;;;;;;;;;;6208758;23;20122;-56
2022/12/12 15:32:59;;;;;;;5.90;3.77;;;;;;;;;;6207754;23;20107;-54
2022/12/12 15:35:26;;;;;;;6.40;4.57;;;;;;;;;;6209201;23;20052;-54
2022/12/12 15:37:53;;;;;;;;;;;;;;;;;;6208980;23;20044;-52
2022/12/12 15:40:31;;;;;;;6.60;3.97;;;;;;;;;;6208495;23;20485;-54
2022/12/12 15:43:05;;;;;;;7.32;4.28;;;;;;;;;;6208819;23;20046;-54
2022/12/12 15:45:41;;;;;;;7.93;4.20;;;;;;;;;;6207322;23;20583;-47
2022/12/12 15:48:15;;;;;;;6.22;3.72;;;;;;;;;;6207862;23;20024;-51
2022/12/12 15:50:49;;;;;;;7.75;4.32;;;;;;;;;;6208791;23;20357;-48